Skip to main content.
Our real time weather data is updated when you reload the page  -  This page was updated at 08:17:17pm on 16/1/2018
 TIME   TEMPERATURE   WINDSPEED   DIRECTION   HUMIDITY   BAROMETER   RAINFALL 
8:15 13.7°C (56.7°F) 13.0 kmh (8.1 mph) NW 68% 1021.0hPa (30.15 inHg) 0.0mm (0.00 in.)
7:15 13.7°C (56.7 °F) 13.0 kmh (8.1 mph) N 67% 1021.0hPa (30.15 inHg) 0.0mm (0.00 in.)
6:15 13.8°C (56.8 °F) 14.8 kmh (9.2 mph) NW 66% 1021.0hPa (30.15 inHg) 0.0mm (0.00 in.)
5:15 13.9°C (57.0 °F) 0.0 kmh (0.0 mph) NW 65% 1021.0hPa (30.15 inHg) 0.0mm (0.00 in.)
4:15 17.3°C (63.1 °F) 14.8 kmh (9.2 mph) NNW 65% 1021.0hPa (30.15 inHg) 0.0mm (0.00 in.)
3:15 17.5°C (63.5 °F) 13.0 kmh (8.1 mph) NW 64% 1021.0hPa (30.15 inHg) 0.0mm (0.00 in.)
2:15 17.5°C (63.5 °F) 11.1 kmh (6.9 mph) NW 62% 1021.0hPa (30.15 inHg) 0.0mm (0.00 in.)
1:15 17.5°C (63.5 °F) 13.0 kmh (8.1 mph) NNW 63% 1022.0hPa (30.18 inHg) 0.0mm (0.00 in.)
12:15 17.2°C (63.0 °F) 11.1 kmh (6.9 mph) NW 64% 1022.0hPa (30.18 inHg) 0.0mm (0.00 in.)
11:15 15.4°C (59.7 °F) 0.0 kmh (0.0 mph) NNW 64% 1023.0hPa (30.21 inHg) 0.0mm (0.00 in.)
10:15 14.9°C (58.8 °F) 0.0 kmh (0.0 mph) NNW 65% 1024.0hPa (30.24 inHg) 0.0mm (0.00 in.)
9:15 13.4°C (56.1 °F) 9.3 kmh (5.8 mph) NNW 67% 1023.0hPa (30.21 inHg) 0.0mm (0.00 in.)
8:15 12.0°C (53.6 °F) 0.0 kmh (0.0 mph) N 66% 1023.0hPa (30.21 inHg) 0.0mm (0.00 in.)
7:15 11.8°C (53.2 °F) 0.0 kmh (0.0 mph) NNW 65% 1023.0hPa (30.21 inHg) 0.0mm (0.00 in.)
6:15 11.8°C (53.2 °F) 0.0 kmh (0.0 mph) N 65% 1022.0hPa (30.18 inHg) 0.0mm (0.00 in.)
5:15 11.8°C (53.2 °F) 0.0 kmh (0.0 mph) N 64% 1022.0hPa (30.18 inHg) 0.0mm (0.00 in.)
4:15 11.9°C (53.4 °F) 0.0 kmh (0.0 mph) N 63% 1022.0hPa (30.18 inHg) 0.0mm (0.00 in.)
3:15 12.0°C (53.6 °F) 0.0 kmh (0.0 mph) NNE 63% 1023.0hPa (30.21 inHg) 0.0mm (0.00 in.)
2:15 12.1°C (53.8 °F) 0.0 kmh (0.0 mph) NNW 62% 1023.0hPa (30.21 inHg) 0.0mm (0.00 in.)
1:15 12.2°C (54.0 °F) 0.0 kmh (0.0 mph) N 61% 1023.0hPa (30.21 inHg) 0.0mm (0.00 in.)
12:15 12.3°C (54.1 °F) 0.0 kmh (0.0 mph) N 60% 1023.0hPa (30.21 inHg) 0.0mm (0.00 in.)
11:15 12.4°C (54.3 °F) 0.0 kmh (0.0 mph) N 60% 1023.0hPa (30.21 inHg) 0.0mm (0.00 in.)
10:15 12.6°C (54.7 °F) 0.0 kmh (0.0 mph) N 59% 1023.0hPa (30.21 inHg) 0.0mm (0.00 in.)
9:15 12.8°C (55.0 °F) 0.0 kmh (0.0 mph) N 59% 1022.0hPa (30.18 inHg) 0.0mm (0.00 in.)